To NAV CANADA Home Page Login to a new session Search on AWWS site Feedback and Comments Disclaimer Vers la page française équivalente Tips FAQ What's new on the site To the Forecasts and Observations / NOTAM section To "File a Flight Plan" website Publications and other links Update of the User's profile FIC Telephone Numbers My Weather Data Folder Route Weather Data Regional Weather Data Local Weather Data To the Forecasts and Observations / NOTAM section
Request Generated 03/28/2017 at 02:25:50 UTC . Weather information available at that time is displayed.

METAR/TAF

GANDER/GANDER INTL/NL    

METAR CYQX 280200Z 32019KT 20SM DRSN OVC032 M04/M09 A3007 RMK SC8
SLP194=
METAR CYQX 280100Z 33019G32KT 20SM DRSN FEW020 BKN030 M04/M09 A3007
RMK SC1SC6 SLP195=
METAR CYQX 280000Z 33022G28KT 20SM DRSN FEW025 BKN034 M04/M10 A3008
RMK SC2SC5 SLP198=

TAF CYQX 272338Z 2800/2824 32020G30KT P6SM BKN025 TEMPO 2800/2806 4SM
-SHSN BKN020
FM280600 31018G28KT 4SM -SHSN BKN020
RMK NXT FCST BY 280600Z=
Your time UTC time
Weather data provided by Environment Canada and NAV CANADA